createdAt,value
2023-05-23T00:02:15.790Z,15.97
2023-05-23T00:04:43.086Z,18.30
2023-05-23T00:07:10.341Z,16.57
2023-05-23T00:09:37.159Z,27.03
2023-05-23T00:12:04.292Z,14.70
2023-05-23T00:14:34.005Z,15.53
2023-05-23T00:17:05.322Z,17.70
2023-05-23T00:19:32.314Z,19.17
2023-05-23T00:21:59.179Z,13.93
2023-05-23T00:24:26.083Z,14.60
2023-05-23T00:26:52.973Z,15.80
2023-05-23T00:29:19.893Z,15.57
2023-05-23T00:31:47.380Z,14.60
2023-05-23T00:34:17.927Z,14.13
2023-05-23T00:36:47.761Z,15.00
2023-05-23T00:39:19.705Z,16.37
2023-05-23T00:41:52.691Z,13.27
2023-05-23T00:44:21.369Z,14.93
2023-05-23T00:46:53.382Z,14.60
2023-05-23T00:49:21.262Z,13.07
2023-05-23T00:51:49.875Z,12.53
2023-05-23T00:54:21.075Z,13.80
2023-05-23T00:56:48.789Z,19.17
2023-05-23T00:59:16.384Z,13.77
2023-05-23T01:01:47.762Z,15.80
2023-05-23T01:04:17.007Z,15.80
2023-05-23T01:06:46.990Z,16.00
2023-05-23T01:09:18.958Z,14.03
2023-05-23T01:11:49.554Z,16.57
2023-05-23T01:14:23.979Z,15.73
2023-05-23T01:17:01.919Z,13.80
2023-05-23T01:20:02.773Z,15.83
2023-05-23T01:23:11.844Z,15.53
2023-05-23T01:25:40.118Z,15.10
2023-05-23T01:28:10.973Z,17.33
2023-05-23T01:30:41.947Z,19.17
2023-05-23T01:33:11.846Z,16.70
2023-05-23T01:35:40.126Z,16.33
2023-05-23T01:38:07.144Z,15.47
2023-05-23T01:40:34.018Z,15.10
2023-05-23T01:43:01.184Z,15.43
2023-05-23T01:45:29.419Z,15.03
2023-05-23T01:47:57.043Z,16.80
2023-05-23T01:50:25.164Z,15.73
2023-05-23T01:52:53.489Z,16.10
2023-05-23T01:55:22.879Z,14.70
2023-05-23T01:57:56.798Z,14.20
2023-05-23T02:00:24.378Z,13.50
2023-05-23T02:02:51.509Z,16.80
2023-05-23T02:05:18.480Z,18.30
2023-05-23T02:07:45.387Z,15.73
2023-05-23T02:10:12.295Z,14.47
2023-05-23T02:12:39.227Z,18.53
2023-05-23T02:15:07.743Z,18.70
2023-05-23T02:17:34.754Z,22.20
2023-05-23T02:20:01.676Z,16.70
2023-05-23T02:22:28.481Z,19.23
2023-05-23T02:24:55.377Z,14.90
2023-05-23T02:27:22.207Z,17.63
2023-05-23T02:29:49.050Z,16.00
2023-05-23T02:32:15.877Z,33.03
2023-05-23T02:34:46.642Z,20.43
2023-05-23T02:37:17.027Z,17.80
2023-05-23T02:39:44.298Z,20.97
2023-05-23T02:42:11.119Z,19.57
2023-05-23T02:44:37.956Z,18.87
2023-05-23T02:47:04.995Z,21.33
2023-05-23T02:49:31.870Z,17.73
2023-05-23T02:51:58.710Z,21.07
2023-05-23T02:54:25.568Z,20.10
2023-05-23T02:56:53.721Z,20.10
2023-05-23T02:59:22.187Z,21.93
2023-05-23T03:01:49.289Z,20.67
2023-05-23T03:04:16.348Z,22.43
2023-05-23T03:06:45.286Z,19.13
2023-05-23T03:09:12.317Z,19.50
2023-05-23T03:11:39.326Z,19.10
2023-05-23T03:14:06.300Z,22.47
2023-05-23T03:16:33.325Z,19.70
2023-05-23T03:19:00.891Z,21.47
2023-05-23T03:21:27.931Z,23.53
2023-05-23T03:23:54.933Z,23.40
2023-05-23T03:26:22.235Z,21.83
2023-05-23T03:28:50.398Z,27.67
2023-05-23T03:31:17.809Z,24.00
2023-05-23T03:33:44.772Z,20.80
2023-05-23T03:36:11.792Z,24.77
2023-05-23T03:38:38.769Z,21.03
2023-05-23T03:41:05.840Z,24.83
2023-05-23T03:43:32.801Z,22.43
2023-05-23T03:45:59.886Z,22.03
2023-05-23T03:48:27.059Z,20.33
2023-05-23T03:50:54.051Z,22.80
2023-05-23T03:53:21.075Z,21.77
2023-05-23T03:55:48.060Z,22.50
2023-05-23T03:58:15.064Z,25.20
2023-05-23T04:00:42.090Z,27.00
2023-05-23T04:03:10.906Z,23.20
2023-05-23T04:05:37.981Z,24.20
2023-05-23T04:08:05.183Z,25.33
2023-05-23T04:10:32.172Z,22.87
2023-05-23T04:12:59.166Z,22.33
2023-05-23T04:15:26.154Z,21.80
2023-05-23T04:17:53.229Z,22.83
2023-05-23T04:20:20.346Z,25.93
2023-05-23T04:22:47.219Z,21.70
2023-05-23T04:25:14.161Z,26.07
2023-05-23T04:27:41.045Z,21.83
2023-05-23T04:30:10.213Z,24.10
2023-05-23T04:32:37.916Z,25.90
2023-05-23T04:35:04.983Z,22.10
2023-05-23T04:37:33.069Z,23.43
2023-05-23T04:40:00.128Z,24.53
2023-05-23T04:42:27.514Z,24.83
2023-05-23T04:44:56.928Z,27.13
2023-05-23T04:47:24.989Z,23.67
2023-05-23T04:49:54.051Z,27.23
2023-05-23T04:52:21.321Z,26.93
2023-05-23T04:54:48.882Z,24.63
2023-05-23T04:57:15.923Z,24.70
2023-05-23T04:59:43.203Z,22.10
2023-05-23T05:02:10.068Z,25.83
2023-05-23T05:04:36.975Z,24.80
2023-05-23T05:07:04.305Z,24.90
2023-05-23T05:09:34.110Z,22.97
2023-05-23T05:12:00.922Z,25.50
2023-05-23T05:14:27.981Z,22.30
2023-05-23T05:16:55.090Z,24.90
2023-05-23T05:19:22.073Z,24.93
2023-05-23T05:21:49.039Z,25.23
2023-05-23T05:24:16.003Z,23.80
2023-05-23T05:26:43.224Z,27.03
2023-05-23T05:29:10.111Z,25.27
2023-05-23T05:31:38.049Z,23.77
2023-05-23T05:34:05.286Z,23.33
2023-05-23T05:36:32.732Z,21.27
2023-05-23T05:38:59.792Z,30.73
2023-05-23T05:41:27.028Z,26.50
2023-05-23T05:43:54.130Z,24.00
2023-05-23T05:46:21.299Z,23.60
2023-05-23T05:48:48.278Z,24.67
2023-05-23T05:51:15.123Z,23.03
2023-05-23T05:53:42.001Z,18.47
2023-05-23T05:56:09.459Z,23.17
2023-05-23T05:58:36.443Z,24.13
2023-05-23T06:01:03.844Z,24.37
2023-05-23T06:03:31.002Z,22.93
2023-05-23T06:05:58.052Z,24.60
2023-05-23T06:08:25.059Z,27.60
2023-05-23T06:10:52.082Z,23.57
2023-05-23T06:13:18.922Z,23.10
2023-05-23T06:15:48.880Z,29.83
2023-05-23T06:18:15.906Z,26.37
2023-05-23T06:20:43.014Z,25.07
2023-05-23T06:23:10.134Z,24.17
2023-05-23T06:25:37.018Z,26.30
2023-05-23T06:28:03.842Z,25.00
2023-05-23T06:30:31.518Z,28.93
2023-05-23T06:32:58.626Z,26.57
2023-05-23T06:35:25.657Z,25.13
2023-05-23T06:37:52.570Z,23.93
2023-05-23T06:40:19.416Z,27.03
2023-05-23T06:42:46.352Z,27.00
2023-05-23T06:45:15.038Z,27.50
2023-05-23T06:47:48.235Z,27.70
2023-05-23T06:50:15.209Z,25.83
2023-05-23T06:52:42.983Z,30.30
2023-05-23T06:55:10.117Z,26.50
2023-05-23T06:57:36.970Z,26.83
2023-05-23T07:00:04.157Z,31.03
2023-05-23T07:02:31.217Z,30.87
2023-05-23T07:04:58.170Z,27.60
2023-05-23T07:07:25.149Z,25.83
2023-05-23T07:09:52.474Z,26.30
2023-05-23T07:12:19.429Z,27.70
2023-05-23T07:14:46.270Z,26.23
2023-05-23T07:17:13.276Z,26.63
2023-05-23T07:19:40.157Z,24.90
2023-05-23T07:22:07.057Z,27.57
2023-05-23T07:24:33.948Z,24.20
2023-05-23T07:27:00.916Z,26.30
2023-05-23T07:29:27.903Z,31.67
2023-05-23T07:31:54.876Z,25.37
2023-05-23T07:34:21.832Z,35.40
2023-05-23T07:36:50.426Z,31.67
2023-05-23T07:39:22.175Z,28.57
2023-05-23T07:41:50.184Z,26.40
2023-05-23T07:44:19.886Z,29.67
2023-05-23T07:46:48.161Z,28.60
2023-05-23T07:49:15.010Z,25.90
2023-05-23T07:51:41.916Z,25.90
2023-05-23T07:54:08.797Z,25.03
2023-05-23T07:56:35.737Z,30.87
2023-05-23T07:59:02.602Z,26.23
2023-05-23T08:01:29.613Z,27.83
2023-05-23T08:03:56.543Z,27.83
2023-05-23T08:06:23.423Z,27.77
2023-05-23T08:08:51.148Z,30.20
2023-05-23T08:11:18.003Z,30.20
2023-05-23T08:13:44.939Z,29.40
2023-05-23T08:16:11.787Z,29.17
2023-05-23T08:18:38.873Z,29.00
2023-05-23T08:21:05.789Z,28.57
2023-05-23T08:23:32.663Z,28.60
2023-05-23T08:25:59.516Z,26.13
2023-05-23T08:28:26.973Z,32.10
2023-05-23T08:30:54.124Z,27.43
2023-05-23T08:33:21.006Z,29.43
2023-05-23T08:35:47.903Z,31.30
2023-05-23T08:38:15.030Z,32.00
2023-05-23T08:40:49.244Z,27.73
2023-05-23T08:43:16.660Z,27.13
2023-05-23T08:45:44.688Z,24.80
2023-05-23T08:48:15.433Z,26.50
2023-05-23T08:50:46.197Z,27.60
2023-05-23T08:53:20.393Z,29.93
2023-05-23T08:55:48.889Z,25.77
2023-05-23T08:58:16.195Z,28.23
2023-05-23T09:00:44.236Z,29.83
2023-05-23T09:03:12.496Z,28.10
2023-05-23T09:05:39.616Z,32.43
2023-05-23T09:08:06.555Z,29.03
2023-05-23T09:10:33.453Z,26.50
2023-05-23T09:13:01.458Z,25.57
2023-05-23T09:15:29.217Z,28.20
2023-05-23T09:18:03.795Z,30.30
2023-05-23T09:20:31.140Z,31.50
2023-05-23T09:22:58.051Z,28.53
2023-05-23T09:25:24.909Z,28.27
2023-05-23T09:27:53.420Z,27.40
2023-05-23T09:30:20.336Z,29.20
2023-05-23T09:33:02.064Z,24.37
2023-05-23T09:35:31.134Z,23.77
2023-05-23T09:38:02.016Z,25.83
2023-05-23T09:40:32.661Z,28.17
2023-05-23T09:43:04.499Z,26.30
2023-05-23T09:45:32.277Z,25.30
2023-05-23T09:47:59.385Z,25.93
2023-05-23T09:50:33.455Z,26.00
2023-05-23T09:53:01.573Z,26.00
2023-05-23T09:55:28.567Z,35.30
2023-05-23T09:57:57.468Z,33.67
2023-05-23T10:00:25.477Z,26.87
2023-05-23T10:03:11.229Z,29.10
2023-05-23T10:05:53.390Z,28.53
2023-05-23T10:08:38.844Z,32.70
2023-05-23T10:11:14.760Z,35.20
2023-05-23T10:13:49.148Z,36.60
2023-05-23T10:16:29.003Z,30.70
2023-05-23T10:18:59.453Z,32.00
2023-05-23T10:21:46.378Z,28.63
2023-05-23T10:24:14.233Z,30.73
2023-05-23T10:26:41.490Z,28.00
2023-05-23T10:29:08.494Z,32.17
2023-05-23T10:31:36.887Z,27.07
2023-05-23T10:34:13.805Z,30.23
2023-05-23T10:37:02.322Z,28.63
2023-05-23T10:39:53.748Z,32.10
2023-05-23T10:42:43.610Z,25.80
2023-05-23T10:45:17.920Z,30.30
2023-05-23T10:47:44.965Z,22.30
2023-05-23T10:50:14.938Z,23.17
2023-05-23T10:52:43.214Z,20.33
2023-05-23T10:55:22.563Z,20.30
2023-05-23T10:58:29.716Z,18.07
2023-05-23T11:00:57.800Z,19.73
2023-05-23T11:03:52.931Z,18.30
2023-05-23T11:06:43.166Z,15.63
2023-05-23T11:09:19.671Z,16.30
2023-05-23T11:12:05.425Z,19.70
2023-05-23T11:14:35.209Z,20.60
2023-05-23T11:17:18.100Z,19.20
2023-05-23T11:20:07.426Z,16.73
2023-05-23T11:22:36.076Z,14.50
2023-05-23T11:25:08.821Z,19.00
2023-05-23T11:27:38.401Z,18.40
2023-05-23T11:30:15.248Z,17.80
2023-05-23T11:32:53.121Z,17.90
2023-05-23T11:35:21.513Z,20.50
2023-05-23T11:37:49.065Z,18.90
2023-05-23T11:40:27.388Z,16.40
2023-05-23T11:42:55.301Z,18.83
2023-05-23T11:45:26.464Z,21.50
2023-05-23T11:47:53.641Z,18.30
2023-05-23T11:50:20.791Z,17.37
2023-05-23T11:52:51.804Z,15.30
2023-05-23T11:55:22.634Z,20.10
2023-05-23T11:57:50.398Z,14.57
2023-05-23T12:00:18.909Z,15.83
2023-05-23T12:02:47.770Z,13.97
2023-05-23T12:05:15.225Z,14.10
2023-05-23T12:07:47.049Z,17.33
2023-05-23T12:10:18.083Z,16.90
2023-05-23T12:12:45.424Z,15.70
2023-05-23T12:15:13.604Z,14.73
2023-05-23T12:17:46.963Z,14.63
2023-05-23T12:20:14.337Z,11.97
2023-05-23T12:22:42.472Z,13.07
2023-05-23T12:25:10.923Z,15.30
2023-05-23T12:27:40.371Z,14.50
2023-05-23T12:30:13.534Z,14.07
2023-05-23T12:32:44.856Z,14.07
2023-05-23T12:35:14.061Z,15.23
2023-05-23T12:37:49.999Z,15.00
2023-05-23T12:40:18.425Z,13.97
2023-05-23T12:42:55.151Z,16.73
2023-05-23T12:45:36.843Z,14.10
2023-05-23T12:48:06.167Z,16.50
2023-05-23T12:50:33.481Z,13.63
2023-05-23T12:53:00.520Z,15.63
2023-05-23T12:55:27.369Z,16.67
2023-05-23T12:57:54.849Z,13.87
2023-05-23T13:00:22.169Z,13.13
2023-05-23T13:02:50.453Z,13.17
2023-05-23T13:05:17.590Z,16.57
2023-05-23T13:07:44.461Z,11.90
2023-05-23T13:10:11.510Z,15.90
2023-05-23T13:12:38.754Z,13.17
2023-05-23T13:15:07.455Z,12.93
2023-05-23T13:17:34.470Z,15.33
2023-05-23T13:20:01.932Z,14.23
2023-05-23T13:22:29.376Z,13.90
2023-05-23T13:24:56.502Z,13.77
2023-05-23T13:27:23.308Z,13.70
2023-05-23T13:29:50.373Z,13.53
2023-05-23T13:32:17.320Z,13.03
2023-05-23T13:34:44.208Z,16.43
2023-05-23T13:37:11.234Z,19.20
2023-05-23T13:39:38.133Z,14.43
2023-05-23T13:42:05.200Z,13.93
2023-05-23T13:44:32.030Z,13.43
2023-05-23T13:47:12.952Z,16.23
2023-05-23T13:49:41.532Z,14.30
2023-05-23T13:52:08.389Z,12.03
2023-05-23T13:54:35.231Z,13.63
2023-05-23T13:57:02.527Z,12.50
2023-05-23T13:59:29.437Z,14.70
2023-05-23T14:01:56.327Z,11.93
2023-05-23T14:04:23.400Z,11.53
2023-05-23T14:06:51.109Z,13.73
2023-05-23T14:09:19.430Z,13.57
2023-05-23T14:11:47.121Z,12.13
2023-05-23T14:14:13.999Z,12.17
2023-05-23T14:16:41.102Z,11.90
2023-05-23T14:19:08.181Z,13.13
2023-05-23T14:21:35.164Z,13.70
2023-05-23T14:24:03.122Z,23.80
2023-05-23T14:26:30.359Z,11.47
2023-05-23T14:28:57.270Z,17.37
2023-05-23T14:31:24.474Z,13.07
2023-05-23T14:33:51.504Z,13.67
2023-05-23T14:36:18.455Z,14.53
2023-05-23T14:38:46.266Z,13.40
2023-05-23T14:41:14.347Z,12.20
2023-05-23T14:43:41.251Z,12.23
2023-05-23T14:46:08.916Z,14.87
2023-05-23T14:48:35.938Z,13.80
2023-05-23T14:51:02.902Z,12.23
2023-05-23T14:53:29.797Z,13.63
2023-05-23T14:55:56.866Z,17.53
2023-05-23T14:58:25.583Z,12.27
2023-05-23T15:00:53.134Z,12.23
2023-05-23T15:03:20.260Z,12.63
2023-05-23T15:05:49.027Z,14.63
2023-05-23T15:08:18.267Z,11.40
2023-05-23T15:10:45.942Z,11.57
2023-05-23T15:13:12.835Z,12.17
2023-05-23T15:15:41.272Z,11.43
2023-05-23T15:18:10.139Z,11.23
2023-05-23T15:20:37.419Z,12.47
2023-05-23T15:23:05.329Z,12.53
2023-05-23T15:25:48.131Z,16.60
2023-05-23T15:28:16.688Z,16.10
2023-05-23T15:30:44.049Z,12.90
2023-05-23T15:33:12.950Z,11.37
2023-05-23T15:35:40.308Z,14.53
2023-05-23T15:38:07.448Z,17.40
2023-05-23T15:40:34.283Z,14.80
2023-05-23T15:43:01.214Z,14.30
2023-05-23T15:45:28.150Z,16.10
2023-05-23T15:47:55.171Z,11.00
2023-05-23T15:50:22.090Z,13.03
2023-05-23T15:52:49.071Z,10.63
2023-05-23T15:55:15.906Z,13.77
2023-05-23T15:57:43.112Z,10.50
2023-05-23T16:00:10.554Z,10.83
2023-05-23T16:02:37.484Z,15.00
2023-05-23T16:05:04.574Z,13.00
2023-05-23T16:07:31.590Z,16.80
2023-05-23T16:09:58.502Z,11.17
2023-05-23T16:12:25.433Z,13.40
2023-05-23T16:14:52.467Z,10.27
2023-05-23T16:17:19.465Z,13.33
2023-05-23T16:19:46.415Z,10.30
2023-05-23T16:22:13.506Z,10.60
2023-05-23T16:24:40.504Z,11.47
2023-05-23T16:27:07.375Z,13.40
2023-05-23T16:29:34.388Z,11.63
2023-05-23T16:32:01.477Z,9.10
2023-05-23T16:34:28.482Z,8.07
2023-05-23T16:36:55.472Z,9.80
2023-05-23T16:39:22.546Z,10.30
2023-05-23T16:41:49.504Z,8.07
2023-05-23T16:44:16.500Z,7.93
2023-05-23T16:46:43.486Z,8.03
2023-05-23T16:49:11.468Z,7.27
2023-05-23T16:51:38.433Z,7.03
2023-05-23T16:54:05.508Z,9.37
2023-05-23T16:56:32.328Z,7.07
2023-05-23T16:58:59.269Z,6.87
2023-05-23T17:01:26.282Z,7.10
2023-05-23T17:03:53.679Z,18.43
2023-05-23T17:06:20.933Z,7.30
2023-05-23T17:08:47.842Z,9.43
2023-05-23T17:11:14.895Z,9.20
2023-05-23T17:13:41.812Z,7.40
2023-05-23T17:16:08.744Z,6.93
2023-05-23T17:18:36.333Z,6.80
2023-05-23T17:21:03.375Z,9.03
2023-05-23T17:23:30.337Z,6.37
2023-05-23T17:25:57.283Z,5.17
2023-05-23T17:28:24.219Z,5.70
2023-05-23T17:30:54.093Z,6.33
2023-05-23T17:33:21.347Z,6.80
2023-05-23T17:35:48.360Z,7.17
2023-05-23T17:38:15.895Z,7.47
2023-05-23T17:40:42.985Z,7.03
2023-05-23T17:43:10.261Z,7.03
2023-05-23T17:45:37.165Z,5.10
2023-05-23T17:48:04.322Z,4.83
2023-05-23T17:50:31.522Z,6.93
2023-05-23T17:52:59.171Z,6.33
2023-05-23T17:55:26.474Z,4.00
2023-05-23T17:57:53.372Z,4.77
2023-05-23T18:00:21.264Z,14.50
2023-05-23T18:02:48.388Z,4.90
2023-05-23T18:05:15.796Z,4.67
2023-05-23T18:07:42.676Z,6.80
2023-05-23T18:10:09.816Z,6.20
2023-05-23T18:12:36.938Z,8.90
2023-05-23T18:15:04.133Z,9.27
2023-05-23T18:17:31.255Z,5.43
2023-05-23T18:19:58.416Z,5.50
2023-05-23T18:22:25.647Z,6.37
2023-05-23T18:24:52.524Z,4.40
2023-05-23T18:27:19.437Z,4.10
2023-05-23T18:29:46.312Z,4.30
2023-05-23T18:32:14.610Z,6.37
2023-05-23T18:34:41.557Z,5.20
2023-05-23T18:37:08.550Z,4.33
2023-05-23T18:39:35.448Z,10.80
2023-05-23T18:42:02.300Z,5.23
2023-05-23T18:44:29.136Z,4.60
2023-05-23T18:46:56.271Z,3.50
2023-05-23T18:49:23.170Z,5.43
2023-05-23T18:51:51.789Z,3.73
2023-05-23T18:54:18.701Z,4.80
2023-05-23T18:56:45.683Z,4.13
2023-05-23T18:59:14.582Z,4.03
2023-05-23T19:01:41.562Z,3.90
2023-05-23T19:04:08.775Z,4.30
2023-05-23T19:06:35.785Z,3.63
2023-05-23T19:09:07.051Z,5.10
2023-05-23T19:11:33.900Z,4.30
2023-05-23T19:14:00.799Z,9.87
2023-05-23T19:16:27.742Z,4.60
2023-05-23T19:18:54.613Z,4.07
2023-05-23T19:21:22.044Z,4.00
2023-05-23T19:23:48.924Z,5.43
2023-05-23T19:26:18.285Z,6.20
2023-05-23T19:28:45.366Z,4.60
2023-05-23T19:31:12.512Z,4.80
2023-05-23T19:33:39.393Z,4.60
2023-05-23T19:36:06.568Z,10.13
2023-05-23T19:38:33.430Z,3.93
2023-05-23T19:41:00.288Z,4.50
2023-05-23T19:43:27.157Z,6.00
2023-05-23T19:45:54.115Z,4.40
2023-05-23T19:48:21.051Z,8.13
2023-05-23T19:50:48.003Z,5.30
2023-05-23T19:53:14.944Z,4.60
2023-05-23T19:55:42.815Z,7.63
2023-05-23T19:58:09.670Z,4.50
2023-05-23T20:00:36.538Z,5.53
2023-05-23T20:03:04.181Z,4.30
2023-05-23T20:05:31.205Z,13.60
2023-05-23T20:07:58.048Z,6.50
2023-05-23T20:10:25.459Z,6.50
2023-05-23T20:12:52.358Z,5.10
2023-05-23T20:15:31.370Z,8.80
2023-05-23T20:18:06.711Z,5.43
2023-05-23T20:20:33.905Z,5.00
2023-05-23T20:23:00.796Z,5.90
2023-05-23T20:25:28.594Z,4.87
2023-05-23T20:27:58.658Z,7.33
2023-05-23T20:30:25.644Z,7.30
2023-05-23T20:32:54.238Z,6.87
2023-05-23T20:35:22.589Z,6.20
2023-05-23T20:37:53.607Z,6.03
2023-05-23T20:40:22.363Z,8.27
2023-05-23T20:42:49.950Z,5.77
2023-05-23T20:45:16.920Z,12.13
2023-05-23T20:47:43.905Z,5.60
2023-05-23T20:50:12.805Z,5.70
2023-05-23T20:52:42.755Z,5.57
2023-05-23T20:55:10.940Z,9.90
2023-05-23T20:57:38.138Z,6.47
2023-05-23T21:00:14.504Z,4.90
2023-05-23T21:02:42.189Z,7.07
2023-05-23T21:05:10.274Z,6.77
2023-05-23T21:07:37.292Z,5.47
2023-05-23T21:10:04.591Z,7.70
2023-05-23T21:12:31.479Z,10.00
2023-05-23T21:14:58.630Z,5.33
2023-05-23T21:17:26.052Z,7.43
2023-05-23T21:19:53.031Z,5.30
2023-05-23T21:22:19.935Z,10.60
2023-05-23T21:24:46.780Z,6.57
2023-05-23T21:27:13.699Z,10.33
2023-05-23T21:29:40.609Z,5.87
2023-05-23T21:32:07.522Z,6.83
2023-05-23T21:34:34.427Z,5.67
2023-05-23T21:37:01.359Z,5.80
2023-05-23T21:39:39.149Z,11.70
2023-05-23T21:42:14.322Z,6.10
2023-05-23T21:44:41.242Z,9.80
2023-05-23T21:47:08.301Z,7.13
2023-05-23T21:49:35.606Z,6.53
2023-05-23T21:52:03.025Z,7.27
2023-05-23T21:54:30.181Z,7.07
2023-05-23T21:56:57.260Z,8.63
2023-05-23T21:59:24.423Z,6.70
2023-05-23T22:01:51.696Z,8.30
2023-05-23T22:04:20.213Z,10.30
2023-05-23T22:06:47.515Z,11.17
2023-05-23T22:09:15.470Z,7.60
2023-05-23T22:11:43.125Z,7.43
2023-05-23T22:14:10.741Z,6.70
2023-05-23T22:16:40.950Z,6.53
2023-05-23T22:19:12.675Z,7.57
2023-05-23T22:21:39.733Z,6.00
2023-05-23T22:24:06.808Z,6.43
2023-05-23T22:26:33.729Z,5.87
2023-05-23T22:29:00.776Z,6.87
2023-05-23T22:31:29.032Z,6.20
2023-05-23T22:33:56.304Z,5.70
2023-05-23T22:36:23.474Z,5.90
2023-05-23T22:38:50.754Z,8.50
2023-05-23T22:41:17.885Z,7.13
2023-05-23T22:43:45.043Z,6.20
2023-05-23T22:46:12.019Z,6.63
2023-05-23T22:48:39.227Z,6.27
2023-05-23T22:51:08.022Z,6.27
2023-05-23T22:53:35.091Z,5.70
2023-05-23T22:56:02.812Z,6.50
2023-05-23T22:58:29.792Z,5.93
2023-05-23T23:00:56.821Z,7.00
2023-05-23T23:03:23.971Z,6.30
2023-05-23T23:05:50.945Z,6.37
2023-05-23T23:08:19.418Z,6.17
2023-05-23T23:10:46.629Z,7.17
2023-05-23T23:13:16.520Z,6.33
2023-05-23T23:15:44.101Z,7.03
2023-05-23T23:18:13.503Z,7.10
2023-05-23T23:20:41.564Z,7.23
2023-05-23T23:23:08.783Z,7.03
2023-05-23T23:25:36.626Z,10.80
2023-05-23T23:28:03.880Z,6.67
2023-05-23T23:30:30.979Z,6.33
2023-05-23T23:32:58.149Z,8.80
2023-05-23T23:35:25.144Z,6.33
2023-05-23T23:37:52.246Z,6.10
2023-05-23T23:40:19.150Z,9.80
2023-05-23T23:42:46.060Z,5.37
2023-05-23T23:45:13.021Z,6.33
2023-05-23T23:47:40.017Z,7.13
2023-05-23T23:50:07.668Z,6.43
2023-05-23T23:52:37.231Z,7.30
2023-05-23T23:55:04.762Z,10.00
2023-05-23T23:57:31.713Z,7.70
2023-05-23T23:59:58.698Z,5.90
